Time;durP1;ratioP1;P1;durP2;ratioP2;P2;SDS_P1;SDS_P2;PMS_P1;PMS_P2;Temp;Humidity;BMP_temperature;BMP_pressure;BME280_temperature;BME280_humidity;BME280_pressure;Samples;Min_cycle;Max_cycle;Signal;HPM_P1;HPM_P2
2022/07/20 00:03:33;;;;;;;4.72;1.80;;;;;;;;;;10447851;28;20036;-55
2022/07/20 00:14:00;;;;;;;3.92;1.90;;;;;;;;;;10449253;28;20025;-55
2022/07/20 00:19:01;;;;;;;2.83;1.40;;;;;;;;;;10445420;28;20055;-53
2022/07/20 00:24:02;;;;;;;7.38;1.30;;;;;;;;;;10445914;28;20044;-57
2022/07/20 00:29:03;;;;;;;3.22;1.42;;;;;;;;;;10447914;28;20055;-58
2022/07/20 00:34:03;;;;;;;3.42;1.42;;;;;;;;;;10443172;28;20029;-51
2022/07/20 00:39:04;;;;;;;4.65;1.60;;;;;;;;;;10448560;28;20158;-54
2022/07/20 00:44:08;;;;;;;2.60;1.60;;;;;;;;;;10447912;28;20021;-54
2022/07/20 00:49:11;;;;;;;1.35;1.23;;;;;;;;;;10447348;28;20029;-53
2022/07/20 00:54:12;;;;;;;3.22;1.30;;;;;;;;;;10440376;28;20056;-51
2022/07/20 00:59:12;;;;;;;2.65;1.30;;;;;;;;;;10441037;28;20086;-49
2022/07/20 01:04:13;;;;;;;2.25;1.58;;;;;;;;;;10425270;28;20370;-53
2022/07/20 01:09:16;;;;;;;1.73;1.52;;;;;;;;;;10421676;28;20048;-57
2022/07/20 01:14:17;;;;;;;2.10;1.60;;;;;;;;;;10446628;28;20037;-56
2022/07/20 01:19:18;;;;;;;2.22;1.40;;;;;;;;;;10449497;28;20021;-48
2022/07/20 01:24:18;;;;;;;4.88;1.52;;;;;;;;;;10454190;28;20037;-48
2022/07/20 01:29:19;;;;;;;2.13;1.50;;;;;;;;;;10453865;28;20029;-47
2022/07/20 01:34:19;;;;;;;1.92;1.20;;;;;;;;;;10446101;28;20144;-47
2022/07/20 01:39:20;;;;;;;2.70;1.42;;;;;;;;;;10454334;28;20048;-47
2022/07/20 01:44:21;;;;;;;1.90;1.20;;;;;;;;;;10455030;28;20028;-49
2022/07/20 01:49:22;;;;;;;2.22;1.40;;;;;;;;;;10454457;28;20025;-48
2022/07/20 01:54:23;;;;;;;2.50;1.50;;;;;;;;;;10452964;28;20050;-47
2022/07/20 01:59:23;;;;;;;3.55;1.42;;;;;;;;;;10454081;28;20480;-47
2022/07/20 02:04:24;;;;;;;2.65;1.60;;;;;;;;;;10448479;28;20439;-49
2022/07/20 02:09:24;;;;;;;2.13;1.20;;;;;;;;;;10444295;28;20071;-48
2022/07/20 02:14:25;;;;;;;1.95;1.40;;;;;;;;;;10440347;28;20037;-48
2022/07/20 02:19:26;;;;;;;2.70;1.25;;;;;;;;;;10453354;28;20113;-47
2022/07/20 02:24:27;;;;;;;3.13;1.60;;;;;;;;;;10439894;28;20083;-47
2022/07/20 02:29:27;;;;;;;2.28;1.38;;;;;;;;;;10440076;28;20037;-48
2022/07/20 02:34:28;;;;;;;3.35;1.70;;;;;;;;;;10453353;28;20021;-47
2022/07/20 02:39:28;;;;;;;2.35;1.38;;;;;;;;;;10447047;28;20021;-48
2022/07/20 02:44:29;;;;;;;14.05;1.75;;;;;;;;;;10441928;28;20021;-49
2022/07/20 02:49:30;;;;;;;7.35;1.75;;;;;;;;;;10451904;28;20029;-46
2022/07/20 02:54:30;;;;;;;6.95;1.60;;;;;;;;;;10451152;28;20040;-47
2022/07/20 02:59:31;;;;;;;2.40;1.40;;;;;;;;;;10440846;28;20025;-51
2022/07/20 03:04:31;;;;;;;2.10;1.27;;;;;;;;;;10447477;28;20029;-48
2022/07/20 03:09:32;;;;;;;2.50;1.25;;;;;;;;;;10438181;28;20055;-46
2022/07/20 03:14:32;;;;;;;2.80;1.50;;;;;;;;;;10450624;28;20028;-46
2022/07/20 03:19:33;;;;;;;2.65;1.60;;;;;;;;;;10449540;28;20033;-46
2022/07/20 03:24:34;;;;;;;1.52;1.13;;;;;;;;;;10449056;28;20048;-47
2022/07/20 03:29:35;;;;;;;1.50;1.40;;;;;;;;;;10438213;28;20029;-47
2022/07/20 03:34:35;;;;;;;4.32;1.40;;;;;;;;;;10449649;28;20094;-47
2022/07/20 03:39:36;;;;;;;6.00;1.60;;;;;;;;;;10449579;28;20468;-47
2022/07/20 03:44:36;;;;;;;1.67;1.25;;;;;;;;;;10448873;28;20056;-46
2022/07/20 03:49:37;;;;;;;1.90;1.33;;;;;;;;;;10449606;28;20021;-48
2022/07/20 03:54:37;;;;;;;1.48;1.25;;;;;;;;;;10449192;28;20048;-49
2022/07/20 03:59:38;;;;;;;2.20;1.30;;;;;;;;;;10449330;28;20028;-53
2022/07/20 04:04:39;;;;;;;1.45;1.33;;;;;;;;;;10435433;28;20036;-55
2022/07/20 04:09:46;;;;;;;8.32;1.33;;;;;;;;;;10447478;28;20531;-56
2022/07/20 04:14:49;;;;;;;1.37;1.27;;;;;;;;;;10448223;28;20040;-53
2022/07/20 04:19:50;;;;;;;4.07;1.35;;;;;;;;;;10448448;28;20029;-53
2022/07/20 04:24:51;;;;;;;3.85;1.60;;;;;;;;;;10445802;28;20147;-48
2022/07/20 04:29:51;;;;;;;2.72;1.40;;;;;;;;;;10442566;28;20025;-51
2022/07/20 04:34:52;;;;;;;2.97;1.40;;;;;;;;;;10440808;28;20060;-48
2022/07/20 04:39:53;;;;;;;3.17;1.30;;;;;;;;;;10447790;28;20029;-49
2022/07/20 04:44:53;;;;;;;4.28;1.50;;;;;;;;;;10448025;28;20025;-47
2022/07/20 04:49:54;;;;;;;1.98;1.17;;;;;;;;;;10447531;28;20028;-47
2022/07/20 04:54:54;;;;;;;1.65;1.30;;;;;;;;;;10446404;28;20204;-48
2022/07/20 04:59:55;;;;;;;1.63;1.42;;;;;;;;;;10455877;28;20025;-47
2022/07/20 05:04:56;;;;;;;1.98;1.27;;;;;;;;;;10446991;28;20082;-50
2022/07/20 05:09:56;;;;;;;10.02;1.88;;;;;;;;;;10449450;28;20055;-52
2022/07/20 05:14:57;;;;;;;3.58;1.60;;;;;;;;;;10455788;28;20083;-55
2022/07/20 05:19:57;;;;;;;1.60;1.38;;;;;;;;;;10445176;28;20025;-55
2022/07/20 05:24:58;;;;;;;3.08;1.45;;;;;;;;;;10450408;28;20396;-57
2022/07/20 05:29:59;;;;;;;2.95;1.70;;;;;;;;;;10441693;28;20041;-53
2022/07/20 05:34:59;;;;;;;5.32;2.10;;;;;;;;;;10449832;28;20029;-57
2022/07/20 05:40:00;;;;;;;4.75;3.13;;;;;;;;;;10453794;28;20029;-57
2022/07/20 05:45:01;;;;;;;6.10;3.58;;;;;;;;;;10449393;28;20026;-57
2022/07/20 05:50:03;;;;;;;15.65;3.47;;;;;;;;;;10440296;28;20025;-57
2022/07/20 05:55:04;;;;;;;19.73;3.95;;;;;;;;;;10453127;28;20032;-60
2022/07/20 06:00:06;;;;;;;15.73;3.83;;;;;;;;;;10445654;28;20068;-54
2022/07/20 06:05:07;;;;;;;12.32;4.32;;;;;;;;;;10449731;28;20021;-56
2022/07/20 06:10:08;;;;;;;21.98;5.15;;;;;;;;;;10446501;28;20025;-56
2022/07/20 06:15:09;;;;;;;34.10;5.45;;;;;;;;;;10442328;28;20106;-54
2022/07/20 06:20:14;;;;;;;16.95;4.97;;;;;;;;;;10443055;28;20033;-57
2022/07/20 06:25:16;;;;;;;13.82;4.65;;;;;;;;;;10444306;28;20091;-60
2022/07/20 06:30:17;;;;;;;14.40;4.78;;;;;;;;;;10444712;28;20060;-57
2022/07/20 06:35:18;;;;;;;12.75;4.60;;;;;;;;;;10449398;28;20032;-57
2022/07/20 06:40:18;;;;;;;11.05;4.03;;;;;;;;;;10447590;28;20110;-57
2022/07/20 06:45:19;;;;;;;17.75;4.20;;;;;;;;;;10450665;28;20017;-57
2022/07/20 06:50:19;;;;;;;10.73;3.78;;;;;;;;;;10445227;28;20055;-57
2022/07/20 06:55:20;;;;;;;11.07;4.25;;;;;;;;;;10445345;28;20044;-56
2022/07/20 07:00:21;;;;;;;12.77;4.22;;;;;;;;;;10451478;28;20020;-57
2022/07/20 07:05:22;;;;;;;11.15;4.40;;;;;;;;;;10437313;28;20368;-57
2022/07/20 07:10:24;;;;;;;6.38;3.95;;;;;;;;;;10439452;28;20040;-57
2022/07/20 07:15:25;;;;;;;17.85;4.03;;;;;;;;;;10449669;28;20435;-58
2022/07/20 07:20:25;;;;;;;10.27;3.90;;;;;;;;;;10440845;28;20080;-58
2022/07/20 07:25:26;;;;;;;7.25;3.30;;;;;;;;;;10449363;28;20051;-57
2022/07/20 07:30:27;;;;;;;7.95;3.95;;;;;;;;;;10415134;28;20045;-57
2022/07/20 07:35:27;;;;;;;7.22;3.55;;;;;;;;;;10426052;28;20032;-57
2022/07/20 07:40:28;;;;;;;9.25;3.95;;;;;;;;;;10420172;28;20112;-59
2022/07/20 07:45:28;;;;;;;6.00;4.00;;;;;;;;;;10426321;28;20033;-57
2022/07/20 07:50:29;;;;;;;9.98;4.15;;;;;;;;;;10431054;28;20469;-58
2022/07/20 07:55:29;;;;;;;9.05;3.90;;;;;;;;;;10448726;28;20492;-57
2022/07/20 08:00:30;;;;;;;14.18;4.50;;;;;;;;;;10443119;28;20044;-57
2022/07/20 08:05:31;;;;;;;12.25;4.80;;;;;;;;;;10443118;28;20033;-57
2022/07/20 08:10:32;;;;;;;10.63;4.53;;;;;;;;;;10439217;28;20028;-57
2022/07/20 08:15:33;;;;;;;9.82;4.55;;;;;;;;;;10445582;28;20126;-57
2022/07/20 08:20:33;;;;;;;10.70;4.45;;;;;;;;;;10441329;28;20025;-57
2022/07/20 08:25:34;;;;;;;7.65;4.13;;;;;;;;;;10440336;28;20048;-57
2022/07/20 08:30:35;;;;;;;15.13;4.38;;;;;;;;;;10447602;28;20472;-57
2022/07/20 08:35:37;;;;;;;11.70;4.38;;;;;;;;;;10427788;28;20428;-57
2022/07/20 08:40:38;;;;;;;7.13;4.05;;;;;;;;;;10439903;28;20029;-57
2022/07/20 08:45:38;;;;;;;10.50;4.88;;;;;;;;;;10433549;28;20472;-57
2022/07/20 08:50:39;;;;;;;9.27;4.53;;;;;;;;;;10446937;28;20483;-57
2022/07/20 08:55:40;;;;;;;8.20;4.10;;;;;;;;;;10424180;28;20195;-58
2022/07/20 09:00:40;;;;;;;7.93;3.97;;;;;;;;;;10436695;28;20033;-58
2022/07/20 09:05:41;;;;;;;7.50;3.88;;;;;;;;;;10440131;28;20056;-57
2022/07/20 09:10:46;;;;;;;10.07;3.75;;;;;;;;;;10447388;28;20033;-58
2022/07/20 09:15:53;;;;;;;9.38;4.07;;;;;;;;;;10441255;28;20033;-57
2022/07/20 09:20:58;;;;;;;10.20;3.97;;;;;;;;;;10436892;28;20112;-57
2022/07/20 09:26:06;;;;;;;12.10;3.72;;;;;;;;;;10442100;28;20041;-60
2022/07/20 09:31:10;;;;;;;8.73;3.80;;;;;;;;;;10437632;28;20025;-57
2022/07/20 09:36:10;;;;;;;16.35;3.42;;;;;;;;;;10440096;28;20029;-58
2022/07/20 09:41:30;;;;;;;7.40;2.75;;;;;;;;;;10451469;28;20399;-57
2022/07/20 09:46:34;;;;;;;9.55;3.30;;;;;;;;;;10445639;28;20272;-57
2022/07/20 09:51:41;;;;;;;7.18;2.58;;;;;;;;;;10453455;28;20068;-57
2022/07/20 09:56:47;;;;;;;10.88;2.70;;;;;;;;;;10440176;28;20089;-57
2022/07/20 10:01:51;;;;;;;14.63;3.42;;;;;;;;;;10447743;28;20457;-57
2022/07/20 10:06:54;;;;;;;14.45;2.75;;;;;;;;;;10438216;28;20111;-59
2022/07/20 10:11:55;;;;;;;9.90;2.85;;;;;;;;;;10417388;28;20044;-60
2022/07/20 10:16:56;;;;;;;11.32;2.90;;;;;;;;;;10439357;28;20036;-60
2022/07/20 10:21:58;;;;;;;6.50;2.80;;;;;;;;;;10436603;28;20115;-60
2022/07/20 10:27:07;;;;;;;5.80;2.70;;;;;;;;;;10417216;28;20124;-59
2022/07/20 10:32:28;;;;;;;3.75;2.17;;;;;;;;;;10443491;28;20037;-59
2022/07/20 10:37:44;;;;;;;6.22;2.78;;;;;;;;;;10430729;28;20027;-60
2022/07/20 10:42:53;;;;;;;8.68;2.63;;;;;;;;;;10441880;28;20113;-60
2022/07/20 10:47:55;;;;;;;5.38;2.60;;;;;;;;;;10444159;28;20033;-59
2022/07/20 10:53:18;;;;;;;7.88;2.40;;;;;;;;;;10443781;28;20048;-60
2022/07/20 10:58:27;;;;;;;6.10;2.85;;;;;;;;;;10442520;28;20263;-60
2022/07/20 11:03:45;;;;;;;4.63;2.55;;;;;;;;;;10447717;28;20025;-60
2022/07/20 11:09:01;;;;;;;8.68;2.72;;;;;;;;;;10443943;28;20108;-59
2022/07/20 11:14:05;;;;;;;6.75;2.50;;;;;;;;;;10441761;28;20190;-60
2022/07/20 11:19:06;;;;;;;3.80;2.40;;;;;;;;;;10441696;28;20114;-60
2022/07/20 11:24:28;;;;;;;3.88;2.38;;;;;;;;;;10448578;28;20040;-60
2022/07/20 11:29:29;;;;;;;3.17;2.55;;;;;;;;;;10446067;28;20032;-60
2022/07/20 11:34:29;;;;;;;8.15;2.60;;;;;;;;;;10442442;28;20473;-56
2022/07/20 11:39:30;;;;;;;9.77;2.75;;;;;;;;;;10449477;28;20059;-59
2022/07/20 11:44:30;;;;;;;7.97;2.63;;;;;;;;;;10449763;28;20032;-61
2022/07/20 11:49:31;;;;;;;10.82;3.20;;;;;;;;;;10444313;28;20427;-59
2022/07/20 11:54:37;;;;;;;20.52;3.30;;;;;;;;;;10448902;28;20060;-61
2022/07/20 11:59:45;;;;;;;8.75;2.95;;;;;;;;;;10448511;28;20024;-57
2022/07/20 12:04:46;;;;;;;13.85;3.10;;;;;;;;;;10447286;28;20111;-57
2022/07/20 12:09:46;;;;;;;7.45;3.15;;;;;;;;;;10447225;28;20029;-56
2022/07/20 12:14:47;;;;;;;8.00;3.25;;;;;;;;;;10426081;28;20044;-57
2022/07/20 12:19:54;;;;;;;14.30;3.35;;;;;;;;;;10412988;28;20128;-57
2022/07/20 12:25:06;;;;;;;9.23;3.55;;;;;;;;;;10430241;28;20057;-57
2022/07/20 12:30:37;;;;;;;4.35;2.95;;;;;;;;;;10428327;28;20029;-57
2022/07/20 12:35:41;;;;;;;21.17;4.80;;;;;;;;;;10433861;28;20024;-57
2022/07/20 12:40:46;;;;;;;13.32;3.50;;;;;;;;;;10443910;28;20028;-58
2022/07/20 12:45:46;;;;;;;17.08;3.72;;;;;;;;;;10443627;28;20021;-59
2022/07/20 12:50:47;;;;;;;8.73;3.72;;;;;;;;;;10444339;28;20029;-59
2022/07/20 12:55:47;;;;;;;14.52;3.72;;;;;;;;;;10445167;28;20032;-57
2022/07/20 13:00:48;;;;;;;15.73;3.30;;;;;;;;;;10444836;28;20029;-59
2022/07/20 13:05:50;;;;;;;9.13;3.80;;;;;;;;;;10446239;28;20362;-61
2022/07/20 13:10:51;;;;;;;4.97;3.03;;;;;;;;;;10440901;28;20040;-61
2022/07/20 13:15:51;;;;;;;7.57;3.20;;;;;;;;;;10445232;28;20032;-58
2022/07/20 13:20:52;;;;;;;6.88;3.40;;;;;;;;;;10444291;28;20112;-57
2022/07/20 13:25:53;;;;;;;11.93;2.90;;;;;;;;;;10454260;28;20444;-58
2022/07/20 13:30:54;;;;;;;18.23;3.88;;;;;;;;;;10446810;28;20029;-57
2022/07/20 13:35:54;;;;;;;9.13;3.70;;;;;;;;;;10449960;28;20235;-60
2022/07/20 13:40:55;;;;;;;10.18;3.20;;;;;;;;;;10447652;28;20029;-58
2022/07/20 13:45:56;;;;;;;7.18;3.45;;;;;;;;;;10454116;28;20119;-58
2022/07/20 13:50:56;;;;;;;16.05;3.65;;;;;;;;;;10454279;28;20021;-58
2022/07/20 13:56:13;;;;;;;9.05;3.20;;;;;;;;;;10446328;28;20021;-61
2022/07/20 14:01:24;;;;;;;12.20;3.47;;;;;;;;;;10450734;28;20028;-61
2022/07/20 14:06:29;;;;;;;7.22;3.28;;;;;;;;;;10452949;28;20456;-58
2022/07/20 14:11:41;;;;;;;7.65;3.13;;;;;;;;;;10451714;28;20021;-61
2022/07/20 14:16:42;;;;;;;5.20;3.33;;;;;;;;;;10451107;28;20480;-61
2022/07/20 14:21:43;;;;;;;7.43;3.03;;;;;;;;;;10435211;28;20033;-61
2022/07/20 14:26:44;;;;;;;7.95;3.40;;;;;;;;;;10424602;28;20052;-60
2022/07/20 14:31:57;;;;;;;5.07;3.20;;;;;;;;;;10414785;28;20032;-60
2022/07/20 14:37:11;;;;;;;8.57;3.20;;;;;;;;;;10417454;28;20114;-60
2022/07/20 14:42:21;;;;;;;7.68;3.60;;;;;;;;;;10427068;28;20033;-58
2022/07/20 14:47:22;;;;;;;5.95;3.20;;;;;;;;;;10447251;28;20027;-59
2022/07/20 14:52:23;;;;;;;8.32;3.45;;;;;;;;;;10442853;28;20048;-58
2022/07/20 14:57:23;;;;;;;6.05;3.25;;;;;;;;;;10432958;28;20036;-58
2022/07/20 15:02:24;;;;;;;9.95;3.20;;;;;;;;;;10407533;28;20368;-58
2022/07/20 15:07:25;;;;;;;8.93;3.33;;;;;;;;;;10415360;28;20018;-58
2022/07/20 15:12:26;;;;;;;8.95;3.20;;;;;;;;;;10414633;28;20021;-58
2022/07/20 15:17:27;;;;;;;9.15;3.20;;;;;;;;;;10418039;28;20462;-58
2022/07/20 15:22:27;;;;;;;10.68;3.85;;;;;;;;;;10418453;28;20045;-61
2022/07/20 15:27:28;;;;;;;20.55;3.53;;;;;;;;;;10414952;28;20045;-61
2022/07/20 15:32:29;;;;;;;12.18;3.08;;;;;;;;;;10414547;28;20039;-61
2022/07/20 15:37:29;;;;;;;11.00;3.67;;;;;;;;;;10412272;28;20386;-61
2022/07/20 15:42:30;;;;;;;11.70;3.20;;;;;;;;;;10420902;28;20104;-62
2022/07/20 15:47:30;;;;;;;7.20;3.60;;;;;;;;;;10421375;28;20039;-62
2022/07/20 15:52:31;;;;;;;10.77;3.50;;;;;;;;;;10433636;28;20451;-60
2022/07/20 15:57:32;;;;;;;6.22;3.28;;;;;;;;;;10440051;28;20029;-62
2022/07/20 16:02:33;;;;;;;10.60;3.53;;;;;;;;;;10449420;28;20036;-62
2022/07/20 16:07:34;;;;;;;11.68;3.35;;;;;;;;;;10443971;28;20480;-62
2022/07/20 16:12:34;;;;;;;9.07;3.50;;;;;;;;;;10438555;28;20033;-62
2022/07/20 16:17:38;;;;;;;11.30;3.03;;;;;;;;;;10449014;28;20448;-62
2022/07/20 16:22:40;;;;;;;7.55;3.17;;;;;;;;;;10443481;28;20504;-63
2022/07/20 16:27:41;;;;;;;7.95;3.50;;;;;;;;;;10422000;28;20040;-62
2022/07/20 16:32:43;;;;;;;7.70;3.33;;;;;;;;;;10409862;28;20047;-60
2022/07/20 16:37:43;;;;;;;9.25;3.40;;;;;;;;;;10430467;28;20033;-62
2022/07/20 16:42:44;;;;;;;4.97;3.38;;;;;;;;;;10432182;28;20026;-62
2022/07/20 16:47:45;;;;;;;6.88;3.50;;;;;;;;;;10428919;28;20047;-61
2022/07/20 16:52:46;;;;;;;4.75;2.90;;;;;;;;;;10441746;28;20360;-61
2022/07/20 16:57:46;;;;;;;4.05;3.38;;;;;;;;;;10439888;28;20029;-59
2022/07/20 17:02:47;;;;;;;6.15;3.30;;;;;;;;;;10444767;28;20028;-63
2022/07/20 17:07:47;;;;;;;4.47;2.95;;;;;;;;;;10439473;28;20030;-61
2022/07/20 17:12:48;;;;;;;5.75;3.17;;;;;;;;;;10439317;28;20115;-61
2022/07/20 17:17:49;;;;;;;7.15;3.22;;;;;;;;;;10441099;28;20048;-61
2022/07/20 17:22:49;;;;;;;5.10;3.40;;;;;;;;;;10425283;28;20048;-62
2022/07/20 17:27:50;;;;;;;7.07;3.80;;;;;;;;;;10423936;28;20049;-62
2022/07/20 17:32:51;;;;;;;6.70;3.33;;;;;;;;;;10426247;28;20409;-65
2022/07/20 17:37:51;;;;;;;6.72;3.15;;;;;;;;;;10421914;28;20048;-63
2022/07/20 17:42:52;;;;;;;6.78;3.78;;;;;;;;;;10435919;28;20090;-63
2022/07/20 17:47:53;;;;;;;9.20;3.60;;;;;;;;;;10427278;28;20056;-61
2022/07/20 17:52:53;;;;;;;8.48;3.30;;;;;;;;;;10440497;28;20044;-62
2022/07/20 17:57:54;;;;;;;3.30;3.00;;;;;;;;;;10441624;28;20021;-63
2022/07/20 18:02:55;;;;;;;4.75;3.00;;;;;;;;;;10446652;28;20025;-60
2022/07/20 18:07:55;;;;;;;3.63;3.33;;;;;;;;;;10436712;28;20025;-61
2022/07/20 18:12:56;;;;;;;7.45;3.03;;;;;;;;;;10439251;28;20119;-54
2022/07/20 18:17:57;;;;;;;5.13;3.22;;;;;;;;;;10444307;28;20086;-63
2022/07/20 18:23:00;;;;;;;9.65;3.80;;;;;;;;;;10440559;28;20074;-63
2022/07/20 18:28:01;;;;;;;5.95;3.40;;;;;;;;;;10437882;28;20136;-60
2022/07/20 18:33:01;;;;;;;10.00;3.25;;;;;;;;;;10435986;28;20216;-60
2022/07/20 18:38:03;;;;;;;4.75;3.75;;;;;;;;;;10434956;28;20411;-62
2022/07/20 18:43:06;;;;;;;6.22;3.50;;;;;;;;;;10434968;28;20055;-63
2022/07/20 18:48:06;;;;;;;8.88;3.53;;;;;;;;;;10427898;28;20374;-63
2022/07/20 18:53:07;;;;;;;5.93;3.35;;;;;;;;;;10429586;28;20034;-65
2022/07/20 18:58:08;;;;;;;5.53;3.30;;;;;;;;;;10428093;28;20036;-62
2022/07/20 19:03:11;;;;;;;8.02;3.45;;;;;;;;;;10426258;28;20589;-65
2022/07/20 19:08:12;;;;;;;17.00;3.70;;;;;;;;;;10425070;28;20523;-64
2022/07/20 19:13:14;;;;;;;9.35;3.28;;;;;;;;;;10438883;28;20043;-63
2022/07/20 19:18:15;;;;;;;8.52;3.17;;;;;;;;;;10439319;28;20029;-65
2022/07/20 19:23:17;;;;;;;4.32;3.15;;;;;;;;;;10437214;28;20104;-63
2022/07/20 19:28:18;;;;;;;10.55;3.08;;;;;;;;;;10444982;28;20072;-64
2022/07/20 19:33:19;;;;;;;4.05;2.85;;;;;;;;;;10443034;28;20239;-67
2022/07/20 19:38:19;;;;;;;11.35;3.20;;;;;;;;;;10430272;28;20057;-63
2022/07/20 19:43:20;;;;;;;9.65;2.80;;;;;;;;;;10437770;28;20051;-64
2022/07/20 19:48:20;;;;;;;8.75;3.40;;;;;;;;;;10443160;28;20026;-64
2022/07/20 19:53:21;;;;;;;13.35;3.35;;;;;;;;;;10432293;28;20417;-63
2022/07/20 19:58:22;;;;;;;5.70;3.33;;;;;;;;;;10424903;28;20028;-63
2022/07/20 20:03:23;;;;;;;8.15;2.83;;;;;;;;;;10432478;28;20755;-63
2022/07/20 20:08:23;;;;;;;5.00;2.70;;;;;;;;;;10419348;28;20099;-64
2022/07/20 20:13:24;;;;;;;7.55;3.28;;;;;;;;;;10419605;28;20492;-63
2022/07/20 20:18:25;;;;;;;6.03;3.38;;;;;;;;;;10413714;28;20025;-63
2022/07/20 20:23:25;;;;;;;7.57;2.88;;;;;;;;;;10420055;28;20033;-63
2022/07/20 20:28:27;;;;;;;7.07;2.83;;;;;;;;;;10420517;28;20121;-62
2022/07/20 20:33:27;;;;;;;5.65;2.65;;;;;;;;;;10419107;28;20382;-61
2022/07/20 20:38:28;;;;;;;7.45;2.50;;;;;;;;;;10443649;28;20071;-63
2022/07/20 20:43:28;;;;;;;5.40;3.10;;;;;;;;;;10446801;28;20029;-63
2022/07/20 20:48:29;;;;;;;4.47;2.75;;;;;;;;;;10445605;28;20388;-63
2022/07/20 20:53:30;;;;;;;6.18;2.80;;;;;;;;;;10445507;28;20040;-62
2022/07/20 20:58:30;;;;;;;8.27;2.58;;;;;;;;;;10430904;28;20025;-63
2022/07/20 21:03:31;;;;;;;4.78;2.67;;;;;;;;;;10446703;28;20040;-63
2022/07/20 21:08:32;;;;;;;5.78;2.55;;;;;;;;;;10437277;28;20021;-63
2022/07/20 21:13:32;;;;;;;3.67;2.42;;;;;;;;;;10424846;28;20040;-64
2022/07/20 21:18:33;;;;;;;3.75;2.33;;;;;;;;;;10422335;28;20439;-63
2022/07/20 21:23:34;;;;;;;3.28;2.30;;;;;;;;;;10416741;28;20245;-62
2022/07/20 21:28:35;;;;;;;12.85;2.63;;;;;;;;;;10438105;28;20049;-61
2022/07/20 21:33:35;;;;;;;11.02;3.22;;;;;;;;;;10433644;28;20059;-62
2022/07/20 21:38:36;;;;;;;10.38;3.20;;;;;;;;;;10453202;28;20052;-61
2022/07/20 21:43:36;;;;;;;12.10;3.25;;;;;;;;;;10447312;28;20033;-58
2022/07/20 21:48:37;;;;;;;6.95;3.00;;;;;;;;;;10433869;28;20176;-62
2022/07/20 21:53:38;;;;;;;20.25;4.13;;;;;;;;;;10450877;28;20108;-61
2022/07/20 21:58:39;;;;;;;13.63;4.07;;;;;;;;;;10446003;28;20173;-65
2022/07/20 22:03:40;;;;;;;11.80;3.88;;;;;;;;;;10449537;28;20040;-62
2022/07/20 22:08:41;;;;;;;16.55;3.72;;;;;;;;;;10436012;28;20056;-64
2022/07/20 22:13:42;;;;;;;15.75;3.78;;;;;;;;;;10445547;28;20041;-63
2022/07/20 22:18:43;;;;;;;20.48;4.00;;;;;;;;;;10442577;28;20024;-62
2022/07/20 22:23:43;;;;;;;14.48;4.07;;;;;;;;;;10440093;28;20033;-63
2022/07/20 22:28:44;;;;;;;11.02;3.78;;;;;;;;;;10447229;28;20044;-62
2022/07/20 22:33:44;;;;;;;20.17;4.28;;;;;;;;;;10444063;28;20029;-63
2022/07/20 22:38:46;;;;;;;12.30;3.50;;;;;;;;;;10452840;28;20341;-63
2022/07/20 22:43:46;;;;;;;10.63;4.03;;;;;;;;;;10447928;28;20044;-64
2022/07/20 22:48:47;;;;;;;12.23;3.95;;;;;;;;;;10451626;28;20043;-63
2022/07/20 22:53:48;;;;;;;13.65;3.72;;;;;;;;;;10450526;28;20037;-63
2022/07/20 22:58:48;;;;;;;8.13;3.60;;;;;;;;;;10451724;28;20017;-60
2022/07/20 23:03:49;;;;;;;13.25;3.78;;;;;;;;;;10446933;28;20110;-60
2022/07/20 23:08:49;;;;;;;10.38;4.03;;;;;;;;;;10438585;28;20522;-60
2022/07/20 23:13:50;;;;;;;7.10;3.92;;;;;;;;;;10419564;28;20041;-62
2022/07/20 23:18:50;;;;;;;10.77;4.22;;;;;;;;;;10414138;28;20285;-63
2022/07/20 23:23:51;;;;;;;10.38;4.18;;;;;;;;;;10418648;28;20194;-61
2022/07/20 23:28:52;;;;;;;9.23;4.28;;;;;;;;;;10421591;28;20058;-64
2022/07/20 23:33:52;;;;;;;18.08;4.53;;;;;;;;;;10449055;28;20063;-60
2022/07/20 23:38:53;;;;;;;20.50;4.80;;;;;;;;;;10448590;28;20037;-62
2022/07/20 23:43:53;;;;;;;13.77;4.25;;;;;;;;;;10448004;28;20025;-59
2022/07/20 23:48:54;;;;;;;7.03;4.05;;;;;;;;;;10448266;28;20091;-58
2022/07/20 23:53:55;;;;;;;13.68;4.55;;;;;;;;;;10442473;28;20033;-62
2022/07/20 23:58:55;;;;;;;12.90;4.78;;;;;;;;;;10445463;28;20025;-60
